Itatiba, Brazil
Current Conditions -  °F | °C
As of 4:00 PM on Friday 19 Dec 2014 (Local Time) from SBKP Reporting Station
Scattered Clouds Scattered Clouds  
Wind Chill: 30°   Ceiling: Unl
Heat Index: 31°   Visibility: 6mi
Dew Point: 19°   Wind: 7mph
Humidity: 51%   Direction: 230°SW
Pressure: 29.83"   Gusts: NA
Location:  23.01°S, 46.84°W
Report Text: SBKP 191800Z 23006KT 9999 SCT040 30/19 Q1010
Loading
Personal Weather Stations






























Interactive Weather Map New forecast layout! Learn more

10-Day Weather Forecast

Advertisements
Track Severe Weather on mobile